Seneca, South Dakota
Current Conditions -  °F | °C
As of 3:52 AM on Friday 19 Dec 2014 (Local Time) from KMBG Reporting Station
Haze Haze  
Wind Chill: 11°   Ceiling: Unl
Heat Index: 22°   Visibility: 6mi
Dew Point: 19°   Wind: 10mph
Humidity: 89%   Direction: 150°SSE
Pressure: 29.98"   Gusts: NA
Location:  45.06°N, 99.51°W
Report Text: KMBG 190952Z AUTO 15009KT 6SM BR CLR M06/M07 A2998 RMK AO2 SLP175 I1000 T10561072 $
Loading
Personal Weather Stations






























Interactive Weather Map New forecast layout! Learn more

10-Day Weather Forecast

Advertisements
Track Severe Weather on mobile